createdAt,value
2017-12-01T00:00:43.725Z,91.90
2017-12-01T00:03:11.238Z,91.80
2017-12-01T00:05:38.753Z,91.50
2017-12-01T00:08:06.275Z,91.80
2017-12-01T00:10:33.840Z,92.60
2017-12-01T00:13:01.367Z,96.60
2017-12-01T00:15:29.646Z,99.30
2017-12-01T00:17:57.959Z,99.00
2017-12-01T00:20:25.499Z,98.90
2017-12-01T00:22:53.815Z,99.90
2017-12-01T00:25:21.378Z,99.90
2017-12-01T00:27:49.009Z,99.90
2017-12-01T00:30:17.351Z,99.60
2017-12-01T00:32:44.847Z,99.50
2017-12-01T00:35:12.378Z,99.00
2017-12-01T00:37:39.886Z,99.10
2017-12-01T00:40:07.429Z,99.00
2017-12-01T00:42:34.951Z,99.60
2017-12-01T00:45:02.746Z,99.60
2017-12-01T00:47:30.268Z,99.70
2017-12-01T00:49:57.784Z,99.80
2017-12-01T00:52:25.350Z,99.60
2017-12-01T00:54:53.032Z,99.50
2017-12-01T00:57:21.353Z,99.50
2017-12-01T00:59:48.851Z,99.30
2017-12-01T01:02:16.382Z,98.40
2017-12-01T01:04:43.867Z,98.50
2017-12-01T01:07:11.377Z,96.90
2017-12-01T01:09:39.659Z,95.40
2017-12-01T01:12:07.183Z,95.30
2017-12-01T01:14:34.717Z,94.40
2017-12-01T01:17:02.218Z,93.50
2017-12-01T01:19:29.786Z,92.40
2017-12-01T01:21:57.290Z,92.90
2017-12-01T01:24:24.832Z,93.80
2017-12-01T01:26:53.192Z,93.70
2017-12-01T01:29:20.774Z,93.70
2017-12-01T01:31:49.095Z,94.50
2017-12-01T01:34:16.587Z,93.50
2017-12-01T01:36:44.118Z,92.60
2017-12-01T01:39:11.630Z,92.50
2017-12-01T01:41:39.275Z,92.60
2017-12-01T01:44:06.779Z,92.40
2017-12-01T01:46:35.079Z,95.30
2017-12-01T01:49:02.578Z,95.20
2017-12-01T01:51:30.138Z,95.30
2017-12-01T01:53:57.692Z,96.10
2017-12-01T01:56:25.278Z,96.30
2017-12-01T01:58:52.790Z,95.90
2017-12-01T02:01:20.301Z,95.20
2017-12-01T02:03:47.815Z,95.60
2017-12-01T02:06:16.075Z,93.20
2017-12-01T02:08:43.634Z,93.10
2017-12-01T02:11:11.122Z,93.90
2017-12-01T02:13:39.401Z,96.00
2017-12-01T02:16:07.685Z,96.80
2017-12-01T02:18:35.221Z,96.70
2017-12-01T02:21:02.721Z,96.70
2017-12-01T02:23:30.242Z,96.90
2017-12-01T02:25:58.090Z,96.80
2017-12-01T02:28:25.597Z,97.20
2017-12-01T02:30:53.889Z,96.20
2017-12-01T02:33:22.635Z,95.70
2017-12-01T02:35:50.159Z,95.60
2017-12-01T02:38:17.672Z,96.90
2017-12-01T02:40:45.199Z,97.40
2017-12-01T02:43:12.722Z,96.10
2017-12-01T02:45:41.026Z,96.80
2017-12-01T02:48:08.550Z,96.80
2017-12-01T02:50:36.146Z,96.20
2017-12-01T02:53:04.475Z,95.40
2017-12-01T02:55:31.977Z,95.30
2017-12-01T02:57:59.530Z,94.30
2017-12-01T03:00:27.807Z,92.70
2017-12-01T03:02:55.321Z,93.00
2017-12-01T03:05:22.843Z,92.20
2017-12-01T03:07:50.367Z,91.80
2017-12-01T03:10:17.893Z,91.10
2017-12-01T03:12:45.425Z,91.10
2017-12-01T03:15:12.971Z,92.00
2017-12-01T03:17:40.462Z,91.60
2017-12-01T03:20:07.985Z,90.90
2017-12-01T03:22:35.478Z,90.50
2017-12-01T03:25:03.006Z,90.20
2017-12-01T03:27:30.506Z,90.20
2017-12-01T03:29:58.222Z,89.80
2017-12-01T03:32:26.301Z,89.00
2017-12-01T03:34:53.808Z,88.70
2017-12-01T03:37:21.326Z,88.60
2017-12-01T03:39:48.846Z,88.40
2017-12-01T03:42:16.342Z,88.20
2017-12-01T03:44:43.880Z,88.50
2017-12-01T03:47:12.169Z,87.60
2017-12-01T03:49:40.624Z,87.90
2017-12-01T03:52:08.174Z,87.70
2017-12-01T03:54:35.679Z,87.60
2017-12-01T03:57:03.975Z,87.10
2017-12-01T03:59:32.254Z,86.50
2017-12-01T04:01:59.759Z,86.30
2017-12-01T04:04:27.287Z,85.30
2017-12-01T04:06:54.834Z,85.30
2017-12-01T04:09:23.117Z,84.50
2017-12-01T04:11:51.398Z,84.70
2017-12-01T04:14:19.654Z,84.20
2017-12-01T04:16:47.206Z,84.20
2017-12-01T04:19:14.804Z,84.50
2017-12-01T04:21:43.062Z,84.80
2017-12-01T04:24:10.591Z,84.90
2017-12-01T04:26:38.113Z,86.00
2017-12-01T04:29:06.403Z,88.00
2017-12-01T04:31:33.908Z,88.00
2017-12-01T04:34:01.399Z,88.80
2017-12-01T04:36:28.942Z,89.40
2017-12-01T04:38:56.480Z,89.20
2017-12-01T04:41:24.145Z,89.90
2017-12-01T04:43:51.662Z,91.10
2017-12-01T04:46:19.176Z,92.20
2017-12-01T04:48:46.724Z,91.70
2017-12-01T04:51:14.297Z,91.00
2017-12-01T04:53:41.824Z,89.90
2017-12-01T04:56:10.205Z,88.20
2017-12-01T04:58:38.503Z,87.90
2017-12-01T05:01:06.769Z,88.70
2017-12-01T05:03:35.079Z,89.10
2017-12-01T05:06:02.726Z,89.00
2017-12-01T05:08:30.999Z,88.70
2017-12-01T05:10:59.281Z,87.90
2017-12-01T05:13:27.564Z,87.40
2017-12-01T05:15:55.867Z,87.20
2017-12-01T05:18:23.412Z,87.20
2017-12-01T05:20:51.815Z,87.10
2017-12-01T05:23:19.360Z,87.00
2017-12-01T05:25:47.651Z,86.50
2017-12-01T05:28:15.209Z,86.40
2017-12-01T05:30:43.469Z,86.40
2017-12-01T05:33:10.958Z,86.30
2017-12-01T05:35:38.612Z,86.70
2017-12-01T05:38:06.907Z,87.40
2017-12-01T05:40:34.412Z,87.30
2017-12-01T05:43:01.963Z,87.80
2017-12-01T05:45:29.586Z,87.80
2017-12-01T05:47:57.910Z,87.80
2017-12-01T05:50:25.508Z,87.70
2017-12-01T05:52:53.027Z,87.50
2017-12-01T05:55:21.790Z,87.30
2017-12-01T05:57:50.092Z,87.30
2017-12-01T06:00:17.670Z,87.20
2017-12-01T06:02:45.206Z,87.40
2017-12-01T06:05:12.754Z,88.00
2017-12-01T06:07:40.317Z,88.30
2017-12-01T06:10:07.848Z,89.10
2017-12-01T06:12:35.518Z,89.00
2017-12-01T06:15:03.051Z,89.10
2017-12-01T06:17:31.026Z,89.40
2017-12-01T06:19:58.551Z,89.70
2017-12-01T06:22:26.824Z,89.80
2017-12-01T06:24:54.375Z,89.70
2017-12-01T06:27:21.875Z,89.50
2017-12-01T06:29:50.172Z,89.70
2017-12-01T06:32:17.724Z,89.60
2017-12-01T06:34:46.919Z,89.90
2017-12-01T06:37:15.190Z,89.90
2017-12-01T06:39:43.496Z,90.30
2017-12-01T06:42:11.541Z,90.20
2017-12-01T06:44:39.072Z,89.90
2017-12-01T06:47:06.608Z,90.50
2017-12-01T06:49:34.103Z,91.80
2017-12-01T06:52:01.625Z,91.80
2017-12-01T06:54:29.152Z,91.30
2017-12-01T06:56:56.698Z,90.80
2017-12-01T06:59:25.468Z,91.40
2017-12-01T07:01:52.978Z,91.10
2017-12-01T07:04:21.263Z,91.80
2017-12-01T07:06:49.541Z,90.40
2017-12-01T07:09:17.809Z,89.80
2017-12-01T07:11:45.509Z,89.70
2017-12-01T07:14:13.784Z,87.50
2017-12-01T07:16:41.280Z,87.50
2017-12-01T07:19:08.887Z,86.80
2017-12-01T07:21:36.438Z,86.80
2017-12-01T07:24:04.807Z,87.20
2017-12-01T07:26:44.299Z,87.60
2017-12-01T07:29:11.800Z,87.50
2017-12-01T07:31:39.356Z,87.80
2017-12-01T07:34:06.884Z,87.40
2017-12-01T07:36:35.166Z,86.60
2017-12-01T07:39:03.479Z,86.70
2017-12-01T07:41:30.975Z,86.70
2017-12-01T07:44:01.113Z,87.10
2017-12-01T07:46:28.678Z,87.00
2017-12-01T07:48:56.207Z,87.10
2017-12-01T07:51:23.746Z,86.60
2017-12-01T07:53:51.248Z,85.60
2017-12-01T07:56:18.906Z,85.40
2017-12-01T07:58:46.460Z,85.40
2017-12-01T08:01:13.967Z,86.30
2017-12-01T08:03:42.232Z,86.50
2017-12-01T08:06:09.818Z,86.80
2017-12-01T08:08:38.090Z,86.40
2017-12-01T08:11:05.874Z,86.20
2017-12-01T08:13:34.185Z,85.70
2017-12-01T08:16:13.525Z,85.50
2017-12-01T08:18:49.080Z,86.00
2017-12-01T08:21:21.344Z,86.30
2017-12-01T08:24:00.814Z,86.40
2017-12-01T08:26:29.151Z,87.20
2017-12-01T08:28:56.646Z,87.10
2017-12-01T08:31:24.187Z,85.80
2017-12-01T08:33:51.746Z,86.80
2017-12-01T08:36:20.036Z,84.60
2017-12-01T08:38:47.523Z,85.40
2017-12-01T08:41:15.618Z,84.30
2017-12-01T08:43:43.110Z,84.20
2017-12-01T08:46:10.667Z,83.80
2017-12-01T08:48:38.926Z,83.10
2017-12-01T08:51:06.429Z,82.90
2017-12-01T08:53:33.979Z,82.60
2017-12-01T08:56:02.286Z,81.10
2017-12-01T08:58:29.791Z,81.10
2017-12-01T09:00:57.292Z,80.50
2017-12-01T09:03:24.837Z,79.50
2017-12-01T09:05:52.365Z,79.70
2017-12-01T09:08:19.904Z,79.70
2017-12-01T09:10:47.642Z,80.80
2017-12-01T09:13:15.946Z,81.10
2017-12-01T09:15:43.442Z,81.10
2017-12-01T09:18:11.029Z,81.20
2017-12-01T09:20:38.687Z,81.70
2017-12-01T09:23:06.197Z,82.00
2017-12-01T09:25:33.750Z,83.10
2017-12-01T09:28:02.003Z,82.90
2017-12-01T09:30:29.553Z,82.90
2017-12-01T09:32:57.094Z,82.00
2017-12-01T09:35:24.644Z,81.20
2017-12-01T09:37:52.148Z,80.60
2017-12-01T09:40:19.771Z,81.40
2017-12-01T09:42:47.308Z,81.10
2017-12-01T09:45:15.567Z,81.70
2017-12-01T09:47:43.885Z,80.60
2017-12-01T09:50:11.427Z,80.50
2017-12-01T09:52:39.767Z,78.40
2017-12-01T09:55:07.270Z,78.40
2017-12-01T09:57:35.540Z,74.50
2017-12-01T10:00:03.089Z,74.30
2017-12-01T10:02:30.790Z,75.00
2017-12-01T10:04:59.110Z,71.90
2017-12-01T10:07:26.604Z,71.80
2017-12-01T10:09:54.116Z,71.00
2017-12-01T10:12:21.671Z,70.50
2017-12-01T10:14:49.316Z,71.20
2017-12-01T10:17:17.591Z,71.80
2017-12-01T10:19:45.142Z,71.60
2017-12-01T10:22:12.699Z,71.70
2017-12-01T10:24:40.258Z,71.80
2017-12-01T10:27:07.769Z,71.30
2017-12-01T10:29:36.041Z,71.70
2017-12-01T10:32:04.330Z,72.10
2017-12-01T10:34:32.596Z,72.60
2017-12-01T10:37:00.166Z,72.50
2017-12-01T10:39:28.522Z,72.40
2017-12-01T10:41:56.206Z,72.40
2017-12-01T10:44:23.704Z,71.30
2017-12-01T10:46:51.222Z,70.10
2017-12-01T10:49:18.748Z,69.90
2017-12-01T10:51:46.238Z,69.50
2017-12-01T10:54:13.766Z,67.80
2017-12-01T10:56:41.388Z,68.80
2017-12-01T10:59:08.987Z,68.10
2017-12-01T11:01:36.486Z,67.40
2017-12-01T11:04:04.022Z,67.80
2017-12-01T11:06:31.733Z,67.80
2017-12-01T11:08:59.255Z,69.80
2017-12-01T11:11:26.886Z,70.70
2017-12-01T11:13:55.199Z,70.30
2017-12-01T11:16:22.742Z,70.30
2017-12-01T11:18:50.474Z,69.70
2017-12-01T11:21:18.001Z,69.70
2017-12-01T11:23:45.504Z,70.70
2017-12-01T11:26:13.045Z,70.70
2017-12-01T11:28:40.574Z,70.90
2017-12-01T11:31:08.117Z,71.20
2017-12-01T11:33:36.390Z,73.40
2017-12-01T11:36:03.926Z,73.30
2017-12-01T11:38:31.415Z,73.30
2017-12-01T11:40:58.919Z,73.70
2017-12-01T11:43:26.527Z,73.90
2017-12-01T11:45:54.031Z,74.20
2017-12-01T11:48:21.602Z,75.00
2017-12-01T11:50:49.102Z,76.10
2017-12-01T11:53:16.893Z,76.00
2017-12-01T11:55:44.439Z,75.10
2017-12-01T11:58:11.966Z,75.00
2017-12-01T12:00:45.218Z,74.40
2017-12-01T12:03:12.747Z,73.40
2017-12-01T12:05:40.242Z,72.90
2017-12-01T12:08:07.743Z,72.40
2017-12-01T12:10:35.371Z,75.00
2017-12-01T12:13:02.948Z,74.20
2017-12-01T12:15:31.210Z,70.30
2017-12-01T12:17:58.918Z,70.20
2017-12-01T12:20:27.171Z,72.60
2017-12-01T12:22:54.712Z,72.50
2017-12-01T12:25:23.079Z,73.30
2017-12-01T12:27:50.740Z,73.20
2017-12-01T12:30:18.381Z,73.90
2017-12-01T12:32:45.940Z,74.50
2017-12-01T12:35:14.204Z,73.20
2017-12-01T12:37:42.468Z,73.60
2017-12-01T12:40:10.005Z,73.60
2017-12-01T12:42:37.573Z,72.80
2017-12-01T12:45:05.119Z,73.10
2017-12-01T12:47:32.638Z,72.50
2017-12-01T12:50:01.195Z,71.40
2017-12-01T12:52:28.855Z,70.70
2017-12-01T12:54:56.400Z,71.50
2017-12-01T12:57:23.951Z,70.70
2017-12-01T12:59:51.450Z,70.00
2017-12-01T13:02:18.951Z,70.70
2017-12-01T13:04:47.259Z,70.20
2017-12-01T13:07:14.823Z,71.00
2017-12-01T13:09:42.654Z,69.80
2017-12-01T13:12:10.149Z,70.20
2017-12-01T13:14:37.690Z,70.30
2017-12-01T13:17:05.952Z,72.10
2017-12-01T13:19:33.492Z,72.90
2017-12-01T13:22:01.062Z,73.60
2017-12-01T13:24:28.566Z,73.90
2017-12-01T13:26:56.876Z,75.90
2017-12-01T13:29:24.379Z,75.80
2017-12-01T13:31:51.891Z,75.60
2017-12-01T13:34:19.451Z,75.80
2017-12-01T13:36:47.714Z,77.20
2017-12-01T13:39:15.898Z,77.10
2017-12-01T13:41:44.199Z,78.80
2017-12-01T13:44:11.702Z,78.80
2017-12-01T13:46:39.238Z,77.30
2017-12-01T13:49:06.735Z,77.60
2017-12-01T13:51:34.299Z,76.10
2017-12-01T13:54:01.819Z,76.80
2017-12-01T13:56:29.582Z,77.30
2017-12-01T13:58:57.077Z,77.20
2017-12-01T14:01:24.620Z,77.70
2017-12-01T14:03:52.130Z,77.80
2017-12-01T14:06:19.690Z,79.20
2017-12-01T14:08:47.190Z,78.90
2017-12-01T14:11:16.079Z,80.30
2017-12-01T14:13:44.345Z,80.50
2017-12-01T14:16:11.867Z,80.50
2017-12-01T14:18:39.403Z,81.00
2017-12-01T14:21:07.011Z,80.50
2017-12-01T14:23:34.771Z,80.50
2017-12-01T14:26:02.328Z,78.50
2017-12-01T14:28:29.851Z,78.50
2017-12-01T14:30:58.147Z,77.00
2017-12-01T14:33:25.660Z,77.00
2017-12-01T14:35:53.160Z,77.50
2017-12-01T14:38:21.438Z,75.30
2017-12-01T14:40:49.698Z,75.60
2017-12-01T14:43:17.223Z,75.60
2017-12-01T14:45:44.716Z,76.40
2017-12-01T14:48:12.232Z,75.50
2017-12-01T14:50:39.754Z,75.40
2017-12-01T14:53:07.359Z,75.50
2017-12-01T14:55:34.897Z,75.40
2017-12-01T14:58:03.210Z,77.10
2017-12-01T15:00:30.882Z,77.00
2017-12-01T15:02:58.541Z,78.00
2017-12-01T15:05:26.047Z,78.80
2017-12-01T15:07:53.575Z,79.80
2017-12-01T15:10:21.185Z,81.50
2017-12-01T15:12:48.735Z,81.30
2017-12-01T15:15:16.270Z,81.20
2017-12-01T15:17:43.780Z,81.10
2017-12-01T15:20:11.302Z,83.40
2017-12-01T15:22:38.899Z,84.70
2017-12-01T15:25:06.398Z,85.00
2017-12-01T15:27:34.707Z,85.20
2017-12-01T15:30:02.344Z,84.80
2017-12-01T15:32:30.650Z,84.90
2017-12-01T15:34:58.151Z,84.70
2017-12-01T15:37:25.671Z,84.70
2017-12-01T15:39:53.261Z,84.50
2017-12-01T15:42:20.807Z,85.10
2017-12-01T15:44:48.318Z,85.30
2017-12-01T15:47:16.018Z,87.60
2017-12-01T15:49:44.449Z,89.20
2017-12-01T15:52:11.972Z,89.20
2017-12-01T15:54:39.524Z,89.30
2017-12-01T15:57:07.778Z,90.30
2017-12-01T15:59:36.071Z,90.10
2017-12-01T16:02:03.665Z,90.20
2017-12-01T16:04:31.186Z,91.50
2017-12-01T16:06:58.731Z,93.60
2017-12-01T16:09:26.443Z,94.90
2017-12-01T16:11:54.702Z,95.20
2017-12-01T16:14:22.286Z,95.20
2017-12-01T16:16:50.590Z,95.60
2017-12-01T16:19:18.155Z,95.50
2017-12-01T16:21:45.659Z,95.40
2017-12-01T16:24:13.291Z,95.30
2017-12-01T16:26:40.855Z,94.80
2017-12-01T16:29:08.526Z,93.90
2017-12-01T16:31:36.011Z,94.20
2017-12-01T16:34:03.643Z,93.00
2017-12-01T16:36:31.186Z,92.30
2017-12-01T16:38:59.463Z,90.90
2017-12-01T16:41:27.251Z,90.90
2017-12-01T16:43:54.769Z,91.40
2017-12-01T16:46:22.366Z,93.00
2017-12-01T16:48:50.667Z,92.90
2017-12-01T16:51:18.170Z,92.80
2017-12-01T16:53:45.682Z,92.70
2017-12-01T16:56:13.437Z,92.50
2017-12-01T16:58:41.706Z,92.00
2017-12-01T17:01:09.265Z,92.00
2017-12-01T17:03:36.758Z,91.70
2017-12-01T17:06:05.027Z,91.90
2017-12-01T17:08:33.358Z,92.70
2017-12-01T17:11:00.869Z,92.60
2017-12-01T17:13:29.169Z,93.10
2017-12-01T17:15:56.658Z,93.00
2017-12-01T17:18:24.203Z,92.30
2017-12-01T17:20:51.730Z,92.00
2017-12-01T17:23:19.231Z,91.30
2017-12-01T17:25:46.772Z,91.00
2017-12-01T17:28:15.052Z,89.30
2017-12-01T17:30:43.353Z,89.60
2017-12-01T17:33:10.842Z,89.60
2017-12-01T17:35:38.419Z,89.30
2017-12-01T17:38:05.941Z,89.10
2017-12-01T17:40:33.614Z,88.30
2017-12-01T17:43:01.111Z,88.70
2017-12-01T17:45:28.677Z,88.10
2017-12-01T17:47:56.173Z,88.10
2017-12-01T17:50:24.450Z,87.30
2017-12-01T17:52:51.982Z,87.10
2017-12-01T17:55:19.478Z,86.40
2017-12-01T17:57:47.005Z,87.40
2017-12-01T18:00:14.594Z,86.90
2017-12-01T18:02:42.143Z,86.40
2017-12-01T18:05:09.757Z,86.10
2017-12-01T18:07:37.311Z,86.40
2017-12-01T18:10:05.690Z,86.10
2017-12-01T18:12:34.015Z,86.10
2017-12-01T18:15:01.580Z,85.90
2017-12-01T18:17:29.126Z,87.00
2017-12-01T18:19:56.614Z,87.60
2017-12-01T18:22:24.111Z,88.10
2017-12-01T18:24:51.674Z,88.40
2017-12-01T18:27:19.184Z,88.40
2017-12-01T18:29:46.706Z,88.80
2017-12-01T18:32:14.256Z,88.70
2017-12-01T18:34:42.806Z,88.40
2017-12-01T18:37:10.422Z,88.80
2017-12-01T18:39:37.943Z,88.50
2017-12-01T18:42:05.466Z,88.70
2017-12-01T18:44:33.729Z,87.60
2017-12-01T18:47:01.229Z,87.50
2017-12-01T18:49:28.753Z,86.80
2017-12-01T18:51:56.271Z,87.30
2017-12-01T18:54:23.796Z,87.50
2017-12-01T18:56:52.111Z,87.30
2017-12-01T18:59:19.685Z,87.20
2017-12-01T19:01:47.199Z,87.30
2017-12-01T19:04:15.526Z,88.40
2017-12-01T19:06:43.019Z,88.40
2017-12-01T19:09:10.567Z,88.80
2017-12-01T19:11:38.089Z,88.60
2017-12-01T19:14:06.391Z,90.10
2017-12-01T19:16:33.921Z,90.00
2017-12-01T19:19:02.202Z,90.30
2017-12-01T19:21:30.631Z,90.20
2017-12-01T19:23:58.122Z,90.20
2017-12-01T19:26:25.679Z,90.20
2017-12-01T19:28:53.178Z,89.80
2017-12-01T19:31:21.503Z,92.00
2017-12-01T19:33:49.054Z,91.90
2017-12-01T19:36:17.296Z,94.00
2017-12-01T19:38:44.836Z,93.90
2017-12-01T19:41:12.397Z,93.90
2017-12-01T19:43:39.911Z,92.90
2017-12-01T19:46:07.408Z,91.70
2017-12-01T19:48:34.953Z,90.90
2017-12-01T19:51:02.459Z,90.30
2017-12-01T19:53:29.970Z,89.60
2017-12-01T19:55:57.609Z,89.40
2017-12-01T19:58:25.979Z,89.80
2017-12-01T20:00:53.467Z,89.70
2017-12-01T20:03:20.955Z,89.10
2017-12-01T20:05:48.488Z,89.20
2017-12-01T20:08:16.753Z,87.80
2017-12-01T20:10:44.294Z,88.50
2017-12-01T20:13:11.787Z,86.70
2017-12-01T20:15:39.276Z,86.40
2017-12-01T20:18:06.825Z,86.20
2017-12-01T20:20:35.130Z,86.30
2017-12-01T20:23:02.679Z,86.20
2017-12-01T20:25:30.984Z,86.70
2017-12-01T20:27:58.526Z,86.60
2017-12-01T20:30:26.098Z,86.80
2017-12-01T20:32:53.670Z,87.80
2017-12-01T20:35:21.172Z,87.70
2017-12-01T20:37:48.701Z,87.80
2017-12-01T20:40:16.264Z,86.70
2017-12-01T20:42:43.842Z,86.10
2017-12-01T20:45:11.981Z,86.00
2017-12-01T20:47:40.255Z,87.60
2017-12-01T20:50:08.562Z,87.60
2017-12-01T20:52:36.055Z,87.50
2017-12-01T20:55:03.586Z,87.30
2017-12-01T20:57:31.219Z,86.40
2017-12-01T20:59:58.722Z,86.10
2017-12-01T21:02:26.311Z,86.00
2017-12-01T21:04:53.811Z,87.30
2017-12-01T21:07:21.345Z,88.00
2017-12-01T21:09:49.018Z,88.30
2017-12-01T21:12:16.566Z,89.10
2017-12-01T21:14:44.059Z,89.20
2017-12-01T21:17:11.636Z,89.10
2017-12-01T21:19:39.971Z,89.00
2017-12-01T21:22:07.467Z,88.50
2017-12-01T21:24:34.986Z,87.70
2017-12-01T21:27:02.493Z,87.10
2017-12-01T21:29:29.983Z,86.10
2017-12-01T21:31:58.270Z,85.20
2017-12-01T21:34:26.631Z,85.00
2017-12-01T21:36:54.126Z,85.00
2017-12-01T21:39:21.675Z,84.60
2017-12-01T21:41:49.971Z,84.10
2017-12-01T21:44:17.499Z,84.90
2017-12-01T21:46:44.991Z,83.90
2017-12-01T21:49:12.520Z,83.70
2017-12-01T21:51:40.027Z,83.30
2017-12-01T21:54:07.630Z,82.90
2017-12-01T21:56:35.121Z,83.00
2017-12-01T21:59:03.104Z,82.70
2017-12-01T22:01:31.407Z,82.70
2017-12-01T22:03:58.916Z,82.60
2017-12-01T22:06:26.468Z,83.10
2017-12-01T22:08:53.975Z,83.50
2017-12-01T22:11:22.290Z,83.40
2017-12-01T22:13:49.807Z,83.30
2017-12-01T22:16:17.323Z,83.50
2017-12-01T22:18:44.972Z,84.30
2017-12-01T22:21:12.484Z,84.70
2017-12-01T22:23:39.999Z,84.70
2017-12-01T22:26:07.542Z,84.90
2017-12-01T22:28:35.894Z,84.80
2017-12-01T22:31:03.614Z,85.00
2017-12-01T22:33:31.105Z,84.90
2017-12-01T22:35:58.627Z,84.90
2017-12-01T22:38:26.934Z,88.60
2017-12-01T22:40:54.443Z,88.50
2017-12-01T22:43:22.100Z,89.60
2017-12-01T22:45:49.607Z,91.20
2017-12-01T22:48:17.266Z,91.60
2017-12-01T22:50:45.550Z,89.50
2017-12-01T22:53:13.083Z,89.30
2017-12-01T22:55:40.654Z,88.20
2017-12-01T22:58:08.319Z,90.20
2017-12-01T23:00:36.614Z,93.60
2017-12-01T23:03:04.914Z,94.00
2017-12-01T23:05:32.418Z,94.00
2017-12-01T23:07:59.925Z,93.40
2017-12-01T23:10:28.193Z,94.60
2017-12-01T23:12:55.697Z,94.60
2017-12-01T23:15:23.238Z,95.10
2017-12-01T23:17:51.547Z,93.90
2017-12-01T23:20:19.574Z,93.80
2017-12-01T23:22:47.107Z,94.80
2017-12-01T23:25:14.607Z,94.60
2017-12-01T23:27:43.463Z,95.10
2017-12-01T23:30:11.027Z,94.50
2017-12-01T23:32:38.530Z,94.20
2017-12-01T23:35:06.820Z,92.90
2017-12-01T23:37:35.267Z,93.50
2017-12-01T23:40:02.767Z,93.40
2017-12-01T23:42:31.090Z,93.10
2017-12-01T23:44:58.619Z,93.10
2017-12-01T23:47:26.951Z,93.30
2017-12-01T23:49:54.495Z,93.20
2017-12-01T23:52:22.001Z,92.70
2017-12-01T23:54:49.538Z,92.30
2017-12-01T23:57:17.051Z,92.10
2017-12-01T23:59:45.317Z,93.30
